createdAt,value
2022-08-05T00:01:36.534Z,51.74
2022-08-05T00:04:17.805Z,50.82
2022-08-05T00:06:47.041Z,51.06
2022-08-05T00:09:19.571Z,50.86
2022-08-05T00:11:55.744Z,50.30
2022-08-05T00:14:29.180Z,50.96
2022-08-05T00:16:57.970Z,50.85
2022-08-05T00:19:33.646Z,51.04
2022-08-05T00:22:11.267Z,50.88
2022-08-05T00:24:42.336Z,50.60
2022-08-05T00:27:16.751Z,51.41
2022-08-05T00:29:44.998Z,51.12
2022-08-05T00:32:15.427Z,50.52
2022-08-05T00:35:05.780Z,50.91
2022-08-05T00:37:35.428Z,51.59
2022-08-05T00:40:17.965Z,52.25
2022-08-05T00:42:56.218Z,52.81
2022-08-05T00:45:27.992Z,52.50
2022-08-05T00:48:05.617Z,52.92
2022-08-05T00:50:34.185Z,52.65
2022-08-05T00:53:02.276Z,52.55
2022-08-05T00:55:34.057Z,53.30
2022-08-05T00:58:11.288Z,53.59
2022-08-05T01:00:40.722Z,53.14
2022-08-05T01:03:22.222Z,52.44
2022-08-05T01:05:51.479Z,52.66
2022-08-05T01:08:40.930Z,53.24
2022-08-05T01:11:13.762Z,53.11
2022-08-05T01:13:57.866Z,53.03
2022-08-05T01:16:34.973Z,52.81
2022-08-05T01:19:14.278Z,52.74
2022-08-05T01:22:23.896Z,53.04
2022-08-05T01:25:39.933Z,52.71
2022-08-05T01:28:27.919Z,52.16
2022-08-05T01:31:05.926Z,52.46
2022-08-05T01:33:41.198Z,53.17
2022-08-05T01:36:16.176Z,52.88
2022-08-05T01:38:48.616Z,53.29
2022-08-05T01:41:25.576Z,53.37
2022-08-05T01:43:57.027Z,53.11
2022-08-05T01:46:42.560Z,53.22
2022-08-05T01:49:24.780Z,53.85
2022-08-05T01:51:58.663Z,55.52
2022-08-05T01:54:31.642Z,56.22
2022-08-05T01:58:12.153Z,55.39
2022-08-05T01:59:53.878Z,55.89
2022-08-05T02:02:26.046Z,56.66
2022-08-05T02:05:00.381Z,57.02
2022-08-05T02:07:30.487Z,57.05
2022-08-05T02:09:59.028Z,56.52
2022-08-05T02:12:38.544Z,56.73
2022-08-05T02:15:13.877Z,56.50
2022-08-05T02:18:28.274Z,57.36
2022-08-05T02:20:47.644Z,56.57
2022-08-05T02:23:23.698Z,56.04
2022-08-05T02:25:53.510Z,55.77
2022-08-05T02:28:28.874Z,55.29
2022-08-05T02:31:04.121Z,55.57
2022-08-05T02:33:38.783Z,55.38
2022-08-05T02:36:13.590Z,55.86
2022-08-05T02:38:53.680Z,55.54
2022-08-05T02:41:28.834Z,55.75
2022-08-05T02:44:12.473Z,55.65
2022-08-05T02:46:58.540Z,55.79
2022-08-05T02:49:36.723Z,56.41
2022-08-05T02:52:08.836Z,56.80
2022-08-05T02:54:41.265Z,57.21
2022-08-05T02:58:09.247Z,57.83
2022-08-05T03:00:03.472Z,58.63
2022-08-05T03:02:36.567Z,58.18
2022-08-05T03:05:06.315Z,58.23
2022-08-05T03:07:59.413Z,57.78
2022-08-05T03:10:25.169Z,57.27
2022-08-05T03:12:55.083Z,56.92
2022-08-05T03:15:24.304Z,56.40
2022-08-05T03:17:57.695Z,55.97
2022-08-05T03:20:26.686Z,56.29
2022-08-05T03:22:57.533Z,56.09
2022-08-05T03:25:32.659Z,56.97
2022-08-05T03:28:03.995Z,57.37
2022-08-05T03:30:34.338Z,57.10
2022-08-05T03:33:07.236Z,57.73
2022-08-05T03:35:40.865Z,57.83
2022-08-05T03:38:11.915Z,56.81
2022-08-05T03:40:45.228Z,56.96
2022-08-05T03:44:09.366Z,56.19
2022-08-05T03:46:08.325Z,56.47
2022-08-05T03:48:37.921Z,55.78
2022-08-05T03:52:49.352Z,55.70
2022-08-05T03:55:52.639Z,55.77
2022-08-05T03:56:58.898Z,55.56
2022-08-05T03:59:54.311Z,56.96
2022-08-05T04:02:38.456Z,57.14
2022-08-05T04:05:11.201Z,57.66
2022-08-05T04:07:58.104Z,56.95
2022-08-05T04:10:28.437Z,56.83
2022-08-05T04:13:00.428Z,57.37
2022-08-05T04:15:33.362Z,57.54
2022-08-05T04:18:07.421Z,58.32
2022-08-05T04:20:41.176Z,58.27
2022-08-05T04:23:12.330Z,58.69
2022-08-05T04:25:57.478Z,58.67
2022-08-05T04:28:30.993Z,59.19
2022-08-05T04:31:00.990Z,59.38
2022-08-05T04:34:17.953Z,59.61
2022-08-05T04:36:44.648Z,59.25
2022-08-05T04:39:08.389Z,59.73
2022-08-05T04:41:37.301Z,59.27
2022-08-05T04:44:08.933Z,59.14
2022-08-05T04:46:38.787Z,59.04
2022-08-05T04:49:12.157Z,59.45
2022-08-05T04:51:44.655Z,59.16
2022-08-05T04:54:14.684Z,58.82
2022-08-05T04:56:43.537Z,58.79
2022-08-05T04:59:13.993Z,58.45
2022-08-05T05:02:07.981Z,57.85
2022-08-05T05:04:47.768Z,57.84
2022-08-05T05:07:17.448Z,57.45
2022-08-05T05:09:46.128Z,57.12
2022-08-05T05:12:14.984Z,56.79
2022-08-05T05:14:49.375Z,56.93
2022-08-05T05:17:23.683Z,56.44
2022-08-05T05:19:56.663Z,55.60
2022-08-05T05:22:26.992Z,55.88
2022-08-05T05:24:56.852Z,55.07
2022-08-05T05:27:41.600Z,55.42
2022-08-05T05:30:28.893Z,54.88
2022-08-05T05:33:09.069Z,54.21
2022-08-05T05:35:44.719Z,53.83
2022-08-05T05:38:14.962Z,53.24
2022-08-05T05:40:51.851Z,52.91
2022-08-05T05:43:27.863Z,52.50
2022-08-05T05:46:15.659Z,52.20
2022-08-05T05:48:45.951Z,51.75
2022-08-05T05:51:20.001Z,50.86
2022-08-05T05:53:58.234Z,50.82
2022-08-05T05:56:32.765Z,50.52
2022-08-05T05:59:05.676Z,50.21
2022-08-05T06:01:37.783Z,49.12
2022-08-05T06:04:08.171Z,49.61
2022-08-05T06:06:36.686Z,49.24
2022-08-05T06:09:07.665Z,49.59
2022-08-05T06:11:39.227Z,48.94
2022-08-05T06:14:07.462Z,48.63
2022-08-05T06:16:36.841Z,48.58
2022-08-05T06:19:07.452Z,48.66
2022-08-05T06:21:38.687Z,49.18
2022-08-05T06:24:12.775Z,49.17
2022-08-05T06:26:51.277Z,48.81
2022-08-05T06:29:24.681Z,48.53
2022-08-05T06:32:25.531Z,48.57
2022-08-05T06:34:57.801Z,47.64
2022-08-05T06:37:56.202Z,47.31
2022-08-05T06:40:20.879Z,47.51
2022-08-05T06:42:52.126Z,46.96
2022-08-05T06:45:44.705Z,47.06
2022-08-05T06:48:47.304Z,46.58
2022-08-05T06:51:00.166Z,46.16
2022-08-05T06:53:29.306Z,46.84
2022-08-05T06:56:00.280Z,47.56
2022-08-05T06:58:36.081Z,48.08
2022-08-05T07:01:06.878Z,46.89
2022-08-05T07:03:36.247Z,47.43
2022-08-05T07:06:05.766Z,48.05
2022-08-05T07:08:47.783Z,48.27
2022-08-05T07:11:22.360Z,47.66
2022-08-05T07:14:20.116Z,48.04
2022-08-05T07:17:58.595Z,48.22
2022-08-05T07:22:37.401Z,47.32
2022-08-05T07:25:54.251Z,47.99
2022-08-05T07:28:02.338Z,47.76
2022-08-05T07:30:38.877Z,47.57
2022-08-05T07:33:09.886Z,47.29
2022-08-05T07:36:01.994Z,47.15
2022-08-05T07:38:33.357Z,46.69
2022-08-05T07:41:35.215Z,46.36
2022-08-05T07:43:55.135Z,45.22
2022-08-05T07:46:26.408Z,45.60
2022-08-05T07:49:02.476Z,45.30
2022-08-05T07:51:40.679Z,45.08
2022-08-05T07:54:18.854Z,44.42
2022-08-05T07:57:14.772Z,42.85
2022-08-05T07:59:39.962Z,42.73
2022-08-05T08:02:15.291Z,43.52
2022-08-05T08:04:46.923Z,42.75
2022-08-05T08:07:15.567Z,42.57
2022-08-05T08:09:44.036Z,42.28
2022-08-05T08:12:33.627Z,42.37
2022-08-05T08:15:04.411Z,41.79
2022-08-05T08:17:33.241Z,42.18
2022-08-05T08:20:23.440Z,42.00
2022-08-05T08:22:55.819Z,42.07
2022-08-05T08:25:26.499Z,40.98
2022-08-05T08:27:55.232Z,40.90
2022-08-05T08:30:32.549Z,40.76
2022-08-05T08:33:09.150Z,40.77
2022-08-05T08:35:53.896Z,40.20
2022-08-05T08:38:36.083Z,40.31
2022-08-05T08:41:08.273Z,39.81
2022-08-05T08:45:17.714Z,39.83
2022-08-05T08:46:30.514Z,39.57
2022-08-05T08:49:08.320Z,39.11
2022-08-05T08:52:03.049Z,39.06
2022-08-05T08:54:36.210Z,38.33
2022-08-05T08:57:11.331Z,37.57
2022-08-05T08:59:41.857Z,38.23
2022-08-05T09:02:19.094Z,38.00
2022-08-05T09:05:16.857Z,37.80
2022-08-05T09:07:56.017Z,36.97
2022-08-05T09:10:26.982Z,36.87
2022-08-05T09:12:56.911Z,37.38
2022-08-05T09:15:32.656Z,36.28
2022-08-05T09:18:08.946Z,35.99
2022-08-05T09:20:38.047Z,33.50
2022-08-05T09:23:18.562Z,33.24
2022-08-05T09:26:02.468Z,32.58
2022-08-05T09:28:34.033Z,33.36
2022-08-05T09:31:23.530Z,33.60
2022-08-05T09:33:59.041Z,33.57
2022-08-05T09:36:55.350Z,33.61
2022-08-05T09:39:39.563Z,32.34
2022-08-05T09:42:23.335Z,32.60
2022-08-05T09:44:56.763Z,33.01
2022-08-05T09:47:48.335Z,31.59
2022-08-05T09:50:38.670Z,32.88
2022-08-05T09:53:12.024Z,32.40
2022-08-05T09:56:04.947Z,32.02
2022-08-05T09:58:41.855Z,31.50
2022-08-05T10:01:14.944Z,31.52
2022-08-05T10:03:59.338Z,30.61
2022-08-05T10:06:31.098Z,30.84
2022-08-05T10:09:24.947Z,31.39
2022-08-05T10:11:55.443Z,30.71
2022-08-05T10:14:26.709Z,30.74
2022-08-05T10:16:57.192Z,30.95
2022-08-05T10:19:31.860Z,31.52
2022-08-05T10:22:29.921Z,30.42
2022-08-05T10:24:59.063Z,30.83
2022-08-05T10:28:09.255Z,31.38
2022-08-05T10:31:20.988Z,31.30
2022-08-05T10:33:14.705Z,30.54
2022-08-05T10:35:44.283Z,30.58
2022-08-05T10:38:14.894Z,30.77
2022-08-05T10:40:57.825Z,31.34
2022-08-05T10:43:36.778Z,30.67
2022-08-05T10:46:09.480Z,30.89
2022-08-05T10:48:56.445Z,31.92
2022-08-05T10:51:29.003Z,31.67
2022-08-05T10:54:05.642Z,31.39
2022-08-05T10:56:52.880Z,31.30
2022-08-05T11:00:03.436Z,30.95
2022-08-05T11:02:37.508Z,30.72
2022-08-05T11:05:07.026Z,30.70
2022-08-05T11:08:03.126Z,31.42
2022-08-05T11:10:27.538Z,30.86
2022-08-05T11:12:56.588Z,30.46
2022-08-05T11:16:00.824Z,29.44
2022-08-05T11:18:30.080Z,30.24
2022-08-05T11:21:02.173Z,29.15
2022-08-05T11:24:03.031Z,29.75
2022-08-05T11:26:32.099Z,28.54
2022-08-05T11:29:11.489Z,28.81
2022-08-05T11:31:54.460Z,29.00
2022-08-05T11:34:38.794Z,28.96
2022-08-05T11:38:29.210Z,29.24
2022-08-05T11:40:02.898Z,29.02
2022-08-05T11:42:37.762Z,29.13
2022-08-05T11:45:23.229Z,29.70
2022-08-05T11:47:58.643Z,29.58
2022-08-05T11:50:27.783Z,29.18
2022-08-05T11:52:58.451Z,29.42
2022-08-05T11:55:32.121Z,29.39
2022-08-05T11:58:09.969Z,28.98
2022-08-05T12:00:41.350Z,29.22
2022-08-05T12:03:24.089Z,29.55
2022-08-05T12:06:01.005Z,29.67
2022-08-05T12:08:31.320Z,29.67
2022-08-05T12:11:05.663Z,29.90
2022-08-05T12:13:48.375Z,29.88
2022-08-05T12:16:25.432Z,29.75
2022-08-05T12:18:55.698Z,29.90
2022-08-05T12:21:26.943Z,30.25
2022-08-05T12:24:05.121Z,29.67
2022-08-05T12:26:35.471Z,29.76
2022-08-05T12:29:09.449Z,29.81
2022-08-05T12:31:49.743Z,29.23
2022-08-05T12:34:25.711Z,29.57
2022-08-05T12:36:55.641Z,28.62
2022-08-05T12:39:34.259Z,29.66
2022-08-05T12:42:03.583Z,28.36
2022-08-05T12:44:34.369Z,28.73
2022-08-05T12:47:03.838Z,28.12
2022-08-05T12:50:01.954Z,28.01
2022-08-05T12:52:37.746Z,28.04
2022-08-05T12:55:22.118Z,28.31
2022-08-05T12:58:52.341Z,28.10
2022-08-05T13:02:01.313Z,28.33
2022-08-05T13:03:42.202Z,28.36
2022-08-05T13:06:15.903Z,28.62
2022-08-05T13:08:51.620Z,27.45
2022-08-05T13:11:25.604Z,27.33
2022-08-05T13:14:25.122Z,26.77
2022-08-05T13:17:10.587Z,27.12
2022-08-05T13:19:52.454Z,27.64
2022-08-05T13:22:28.234Z,27.32
2022-08-05T13:25:05.111Z,26.40
2022-08-05T13:27:38.733Z,26.93
2022-08-05T13:30:33.835Z,27.23
2022-08-05T13:33:01.113Z,28.03
2022-08-05T13:35:42.437Z,27.78
2022-08-05T13:38:28.271Z,27.44
2022-08-05T13:40:59.885Z,27.63
2022-08-05T13:43:45.305Z,27.37
2022-08-05T13:46:35.814Z,26.63
2022-08-05T13:49:11.553Z,26.36
2022-08-05T13:51:46.148Z,26.27
2022-08-05T13:54:16.065Z,26.88
2022-08-05T13:56:51.169Z,26.39
2022-08-05T13:59:24.186Z,26.47
2022-08-05T14:01:56.515Z,25.30
2022-08-05T14:05:00.656Z,26.17
2022-08-05T14:08:00.953Z,25.67
2022-08-05T14:10:28.853Z,26.11
2022-08-05T14:12:59.754Z,25.73
2022-08-05T14:16:06.853Z,25.25
2022-08-05T14:18:18.159Z,25.06
2022-08-05T14:20:49.019Z,25.08
2022-08-05T14:23:24.663Z,25.58
2022-08-05T14:25:54.629Z,25.35
2022-08-05T14:28:28.137Z,25.03
2022-08-05T14:30:56.347Z,24.87
2022-08-05T14:33:24.453Z,25.19
2022-08-05T14:35:54.886Z,24.10
2022-08-05T14:38:33.365Z,25.21
2022-08-05T14:41:07.751Z,25.41
2022-08-05T14:43:59.606Z,25.04
2022-08-05T14:46:29.168Z,24.66
2022-08-05T14:49:06.949Z,25.15
2022-08-05T14:51:38.848Z,25.02
2022-08-05T14:54:28.818Z,24.38
2022-08-05T14:56:59.282Z,24.62
2022-08-05T14:59:29.717Z,24.97
2022-08-05T15:02:03.945Z,24.97
2022-08-05T15:04:44.913Z,25.77
2022-08-05T15:08:09.053Z,26.08
2022-08-05T15:10:05.566Z,26.49
2022-08-05T15:12:59.778Z,26.38
2022-08-05T15:15:54.561Z,26.32
2022-08-05T15:18:14.672Z,26.19
2022-08-05T15:20:45.095Z,26.61
2022-08-05T15:23:15.736Z,27.04
2022-08-05T15:25:53.772Z,27.39
2022-08-05T15:28:27.852Z,27.63
2022-08-05T15:30:56.504Z,28.85
2022-08-05T15:34:05.345Z,28.36
2022-08-05T15:36:17.617Z,28.78
2022-08-05T15:40:58.613Z,28.57
2022-08-05T15:41:58.564Z,28.53
2022-08-05T15:44:27.690Z,29.27
2022-08-05T15:46:55.996Z,28.18
2022-08-05T15:49:43.267Z,28.94
2022-08-05T15:52:29.206Z,28.80
2022-08-05T15:55:03.674Z,27.81
2022-08-05T15:57:33.096Z,28.95
2022-08-05T16:00:03.018Z,28.82
2022-08-05T16:02:31.285Z,29.33
2022-08-05T16:04:59.586Z,29.61
2022-08-05T16:07:29.502Z,28.71
2022-08-05T16:09:57.852Z,29.17
2022-08-05T16:12:27.398Z,29.41
2022-08-05T16:14:55.546Z,29.18
2022-08-05T16:17:24.412Z,29.56
2022-08-05T16:20:04.421Z,29.51
2022-08-05T16:22:34.787Z,29.12
2022-08-05T16:25:05.418Z,29.48
2022-08-05T16:28:00.179Z,29.34
2022-08-05T16:30:28.761Z,29.14
2022-08-05T16:32:57.565Z,29.39
2022-08-05T16:35:28.355Z,29.75
2022-08-05T16:38:16.174Z,30.05
2022-08-05T16:40:55.303Z,30.67
2022-08-05T16:43:26.462Z,30.97
2022-08-05T16:46:04.178Z,30.40
2022-08-05T16:48:38.463Z,30.39
2022-08-05T16:51:09.702Z,30.61
2022-08-05T16:54:03.437Z,30.73
2022-08-05T16:56:29.729Z,30.79
2022-08-05T16:59:00.738Z,30.67
2022-08-05T17:01:31.811Z,30.58
2022-08-05T17:04:18.797Z,30.54
2022-08-05T17:06:53.413Z,29.94
2022-08-05T17:09:23.132Z,30.38
2022-08-05T17:11:54.761Z,30.43
2022-08-05T17:14:36.971Z,31.00
2022-08-05T17:17:14.280Z,30.83
2022-08-05T17:19:45.242Z,31.35
2022-08-05T17:22:24.819Z,31.58
2022-08-05T17:24:57.730Z,32.35
2022-08-05T17:27:27.499Z,32.22
2022-08-05T17:30:12.036Z,31.15
2022-08-05T17:32:47.216Z,31.32
2022-08-05T17:35:20.980Z,31.58
2022-08-05T17:37:50.635Z,31.33
2022-08-05T17:40:22.543Z,31.21
2022-08-05T17:42:52.953Z,31.00
2022-08-05T17:45:38.099Z,31.60
2022-08-05T17:48:08.254Z,32.00
2022-08-05T17:50:36.762Z,31.42
2022-08-05T17:53:08.374Z,31.60
2022-08-05T17:55:39.501Z,31.95
2022-08-05T17:58:13.576Z,31.96
2022-08-05T18:00:50.646Z,31.96
2022-08-05T18:03:48.375Z,32.08
2022-08-05T18:06:12.142Z,32.35
2022-08-05T18:08:45.925Z,32.52
2022-08-05T18:11:24.199Z,32.62
2022-08-05T18:14:01.040Z,32.66
2022-08-05T18:16:34.384Z,33.26
2022-08-05T18:19:04.075Z,33.40
2022-08-05T18:22:09.323Z,33.41
2022-08-05T18:24:20.979Z,33.83
2022-08-05T18:26:49.352Z,33.97
2022-08-05T18:29:17.375Z,34.04
2022-08-05T18:32:13.048Z,34.02
2022-08-05T18:34:42.815Z,34.03
2022-08-05T18:37:12.639Z,33.98
2022-08-05T18:40:34.477Z,34.19
2022-08-05T18:42:33.340Z,34.14
2022-08-05T18:45:01.418Z,34.28
2022-08-05T18:47:31.056Z,34.17
2022-08-05T18:50:19.717Z,34.73
2022-08-05T18:52:51.225Z,34.77
2022-08-05T18:55:21.463Z,34.80
2022-08-05T18:57:53.312Z,34.90
2022-08-05T19:00:27.062Z,35.05
2022-08-05T19:03:03.327Z,35.21
2022-08-05T19:06:11.363Z,35.04
2022-08-05T19:08:21.510Z,35.33
2022-08-05T19:10:49.941Z,35.83
2022-08-05T19:13:19.818Z,35.58
2022-08-05T19:15:59.791Z,35.87
2022-08-05T19:18:33.075Z,35.86
2022-08-05T19:21:01.567Z,36.09
2022-08-05T19:24:07.340Z,36.34
2022-08-05T19:26:22.458Z,36.54
2022-08-05T19:28:50.551Z,36.67
2022-08-05T19:31:21.379Z,36.98
2022-08-05T19:33:56.513Z,37.08
2022-08-05T19:36:25.671Z,37.23
2022-08-05T19:39:00.584Z,37.20
2022-08-05T19:42:06.459Z,37.22
2022-08-05T19:44:18.829Z,38.34
2022-08-05T19:46:47.461Z,37.73
2022-08-05T19:49:19.807Z,37.96
2022-08-05T19:52:05.976Z,37.91
2022-08-05T19:54:37.209Z,38.22
2022-08-05T19:57:09.522Z,37.71
2022-08-05T20:00:00.619Z,38.11
2022-08-05T20:02:31.303Z,37.66
2022-08-05T20:05:01.024Z,37.94
2022-08-05T20:07:38.935Z,37.94
2022-08-05T20:10:16.943Z,37.98
2022-08-05T20:12:45.964Z,38.36
2022-08-05T20:15:48.652Z,38.72
2022-08-05T20:18:10.413Z,38.98
2022-08-05T20:21:00.033Z,38.50
2022-08-05T20:23:39.324Z,38.79
2022-08-05T20:26:18.106Z,38.43
2022-08-05T20:28:48.715Z,38.33
2022-08-05T20:31:21.598Z,38.43
2022-08-05T20:33:57.062Z,38.85
2022-08-05T20:36:26.861Z,38.91
2022-08-05T20:38:57.938Z,38.83
2022-08-05T20:41:43.825Z,38.97
2022-08-05T20:44:18.617Z,38.54
2022-08-05T20:46:59.281Z,38.82
2022-08-05T20:49:27.862Z,39.21
2022-08-05T20:51:58.284Z,38.66
2022-08-05T20:54:43.648Z,38.77
2022-08-05T20:57:24.537Z,39.85
2022-08-05T21:00:19.638Z,39.08
2022-08-05T21:02:57.851Z,39.17
2022-08-05T21:05:28.569Z,39.99
2022-08-05T21:08:15.822Z,40.03
2022-08-05T21:10:49.042Z,40.39
2022-08-05T21:13:26.090Z,42.28
2022-08-05T21:15:55.431Z,42.84
2022-08-05T21:18:23.649Z,44.20
2022-08-05T21:20:51.867Z,44.68
2022-08-05T21:23:22.390Z,45.37
2022-08-05T21:25:51.161Z,45.46
2022-08-05T21:28:23.926Z,45.30
2022-08-05T21:30:58.865Z,45.26
2022-08-05T21:33:37.067Z,45.48
2022-08-05T21:36:08.705Z,45.58
2022-08-05T21:38:40.576Z,45.79
2022-08-05T21:41:09.555Z,45.76
2022-08-05T21:43:41.659Z,45.25
2022-08-05T21:46:11.865Z,45.14
2022-08-05T21:48:40.500Z,44.63
2022-08-05T21:52:15.339Z,45.11
2022-08-05T21:54:03.614Z,46.17
2022-08-05T21:56:32.134Z,45.72
2022-08-05T21:59:01.438Z,45.80
2022-08-05T22:01:36.245Z,46.51
2022-08-05T22:04:04.592Z,46.21
2022-08-05T22:06:35.078Z,46.11
2022-08-05T22:09:15.102Z,45.98
2022-08-05T22:11:49.024Z,45.76
2022-08-05T22:14:33.349Z,45.81
2022-08-05T22:17:03.970Z,45.83
2022-08-05T22:20:01.791Z,46.52
2022-08-05T22:22:27.577Z,47.08
2022-08-05T22:25:21.247Z,47.59
2022-08-05T22:28:08.706Z,48.40
2022-08-05T22:30:55.459Z,48.44
2022-08-05T22:33:58.464Z,48.45
2022-08-05T22:36:14.733Z,48.57
2022-08-05T22:38:48.588Z,49.04
2022-08-05T22:42:04.820Z,49.31
2022-08-05T22:44:08.337Z,49.63
2022-08-05T22:46:39.393Z,49.78
2022-08-05T22:49:12.065Z,49.71
2022-08-05T22:52:07.645Z,49.62
2022-08-05T22:54:28.454Z,49.67
2022-08-05T22:56:58.158Z,49.44
2022-08-05T22:59:45.247Z,49.28
2022-08-05T23:02:16.918Z,50.05
2022-08-05T23:04:52.306Z,49.93
2022-08-05T23:07:23.150Z,50.64
2022-08-05T23:09:57.494Z,49.97
2022-08-05T23:12:32.875Z,49.96
2022-08-05T23:15:03.195Z,49.86
2022-08-05T23:17:34.555Z,49.80
2022-08-05T23:20:16.410Z,49.93
2022-08-05T23:22:47.215Z,50.18
2022-08-05T23:25:17.008Z,50.38
2022-08-05T23:28:07.554Z,50.73
2022-08-05T23:30:40.499Z,51.28
2022-08-05T23:33:22.554Z,51.26
2022-08-05T23:35:56.414Z,51.79
2022-08-05T23:38:26.725Z,52.59
2022-08-05T23:40:54.971Z,52.56
2022-08-05T23:44:04.614Z,52.90
2022-08-05T23:46:19.971Z,52.23
2022-08-05T23:49:00.746Z,51.97
2022-08-05T23:51:53.309Z,52.50
2022-08-05T23:54:25.595Z,52.14
2022-08-05T23:57:03.184Z,51.84
